sensor_id;sensor_type;location;lat;lon;timestamp;temperature;humidity
4487;DHT22;2256;48.740;9.106;2023-12-04T00:01:33;-4.60;99.90
4487;DHT22;2256;48.740;9.106;2023-12-04T00:04:01;-4.60;99.90
4487;DHT22;2256;48.740;9.106;2023-12-04T00:06:28;-4.70;99.90
4487;DHT22;2256;48.740;9.106;2023-12-04T00:08:55;-4.70;99.90
4487;DHT22;2256;48.740;9.106;2023-12-04T00:11:22;-4.90;99.90
4487;DHT22;2256;48.740;9.106;2023-12-04T00:13:48;-5.10;99.90
4487;DHT22;2256;48.740;9.106;2023-12-04T00:16:15;-5.20;99.90
4487;DHT22;2256;48.740;9.106;2023-12-04T00:18:42;-5.20;99.90
4487;DHT22;2256;48.740;9.106;2023-12-04T00:21:10;-5.20;99.90
4487;DHT22;2256;48.740;9.106;2023-12-04T00:23:37;-5.20;99.90
4487;DHT22;2256;48.740;9.106;2023-12-04T00:26:04;-5.40;99.90
4487;DHT22;2256;48.740;9.106;2023-12-04T00:28:31;-5.50;99.90
4487;DHT22;2256;48.740;9.106;2023-12-04T00:30:58;-5.50;99.90
4487;DHT22;2256;48.740;9.106;2023-12-04T00:33:25;-5.40;99.90
4487;DHT22;2256;48.740;9.106;2023-12-04T00:35:52;-5.50;99.90
4487;DHT22;2256;48.740;9.106;2023-12-04T00:38:20;-5.50;99.90
4487;DHT22;2256;48.740;9.106;2023-12-04T00:40:46;-5.50;99.90
4487;DHT22;2256;48.740;9.106;2023-12-04T00:43:13;-5.30;99.90
4487;DHT22;2256;48.740;9.106;2023-12-04T00:45:40;-5.30;99.90
4487;DHT22;2256;48.740;9.106;2023-12-04T00:48:07;-5.30;99.90
4487;DHT22;2256;48.740;9.106;2023-12-04T00:50:33;-5.30;99.90
4487;DHT22;2256;48.740;9.106;2023-12-04T00:53:00;-5.30;99.90
4487;DHT22;2256;48.740;9.106;2023-12-04T00:55:29;-5.20;99.90
4487;DHT22;2256;48.740;9.106;2023-12-04T00:57:55;-5.30;99.90
4487;DHT22;2256;48.740;9.106;2023-12-04T01:00:22;-5.30;99.90
4487;DHT22;2256;48.740;9.106;2023-12-04T01:02:49;-5.20;99.90
4487;DHT22;2256;48.740;9.106;2023-12-04T01:05:16;-5.10;99.90
4487;DHT22;2256;48.740;9.106;2023-12-04T01:07:43;-5.10;99.90
4487;DHT22;2256;48.740;9.106;2023-12-04T01:10:10;-5.10;99.90
4487;DHT22;2256;48.740;9.106;2023-12-04T01:12:38;-5.10;99.90
4487;DHT22;2256;48.740;9.106;2023-12-04T01:15:05;-5.10;99.90
4487;DHT22;2256;48.740;9.106;2023-12-04T01:17:32;-5.10;99.90
4487;DHT22;2256;48.740;9.106;2023-12-04T01:19:59;-5.00;99.90
4487;DHT22;2256;48.740;9.106;2023-12-04T01:22:26;-5.10;99.90
4487;DHT22;2256;48.740;9.106;2023-12-04T01:24:52;-5.10;99.90
4487;DHT22;2256;48.740;9.106;2023-12-04T01:27:19;-5.10;99.90
4487;DHT22;2256;48.740;9.106;2023-12-04T01:29:47;-5.20;99.90
4487;DHT22;2256;48.740;9.106;2023-12-04T01:32:15;-5.20;99.90
4487;DHT22;2256;48.740;9.106;2023-12-04T01:34:41;-5.20;99.90
4487;DHT22;2256;48.740;9.106;2023-12-04T01:37:08;-5.00;99.90
4487;DHT22;2256;48.740;9.106;2023-12-04T01:39:35;-4.90;99.90
4487;DHT22;2256;48.740;9.106;2023-12-04T01:42:03;-4.80;99.90
4487;DHT22;2256;48.740;9.106;2023-12-04T01:44:29;-4.60;99.90
4487;DHT22;2256;48.740;9.106;2023-12-04T01:46:57;-4.60;99.90
4487;DHT22;2256;48.740;9.106;2023-12-04T01:49:24;-4.60;99.90
4487;DHT22;2256;48.740;9.106;2023-12-04T01:51:51;-4.60;99.90
4487;DHT22;2256;48.740;9.106;2023-12-04T01:54:19;-4.50;99.90
4487;DHT22;2256;48.740;9.106;2023-12-04T01:56:46;-4.50;99.90
4487;DHT22;2256;48.740;9.106;2023-12-04T01:59:13;-4.50;99.90
4487;DHT22;2256;48.740;9.106;2023-12-04T02:01:40;-4.50;99.90
4487;DHT22;2256;48.740;9.106;2023-12-04T02:04:08;-4.50;99.90
4487;DHT22;2256;48.740;9.106;2023-12-04T02:06:35;-4.60;99.90
4487;DHT22;2256;48.740;9.106;2023-12-04T02:09:02;-4.60;99.90
4487;DHT22;2256;48.740;9.106;2023-12-04T02:11:32;-4.50;99.90
4487;DHT22;2256;48.740;9.106;2023-12-04T02:13:59;-4.40;99.90
4487;DHT22;2256;48.740;9.106;2023-12-04T02:16:27;-4.40;99.90
4487;DHT22;2256;48.740;9.106;2023-12-04T02:18:55;-4.50;99.90
4487;DHT22;2256;48.740;9.106;2023-12-04T02:21:23;-4.50;99.90
4487;DHT22;2256;48.740;9.106;2023-12-04T02:23:52;-4.50;99.90
4487;DHT22;2256;48.740;9.106;2023-12-04T02:26:24;-4.60;99.90
4487;DHT22;2256;48.740;9.106;2023-12-04T02:28:58;-4.70;99.90
4487;DHT22;2256;48.740;9.106;2023-12-04T02:31:26;-4.70;99.90
4487;DHT22;2256;48.740;9.106;2023-12-04T02:33:56;-4.70;99.90
4487;DHT22;2256;48.740;9.106;2023-12-04T02:36:24;-4.80;99.90
4487;DHT22;2256;48.740;9.106;2023-12-04T02:38:53;-4.90;99.90
4487;DHT22;2256;48.740;9.106;2023-12-04T02:41:20;-5.10;99.90
4487;DHT22;2256;48.740;9.106;2023-12-04T02:43:47;-5.00;99.90
4487;DHT22;2256;48.740;9.106;2023-12-04T02:46:14;-5.10;99.90
4487;DHT22;2256;48.740;9.106;2023-12-04T02:48:41;-5.00;99.90
4487;DHT22;2256;48.740;9.106;2023-12-04T02:51:08;-4.90;99.90
4487;DHT22;2256;48.740;9.106;2023-12-04T02:53:35;-4.90;99.90
4487;DHT22;2256;48.740;9.106;2023-12-04T02:56:04;-5.10;99.90
4487;DHT22;2256;48.740;9.106;2023-12-04T02:58:31;-5.10;99.90
4487;DHT22;2256;48.740;9.106;2023-12-04T03:00:59;-5.10;99.90
4487;DHT22;2256;48.740;9.106;2023-12-04T03:03:26;-5.10;99.90
4487;DHT22;2256;48.740;9.106;2023-12-04T03:05:53;-5.00;99.90
4487;DHT22;2256;48.740;9.106;2023-12-04T03:08:19;-5.00;99.90
4487;DHT22;2256;48.740;9.106;2023-12-04T03:10:46;-4.90;99.90
4487;DHT22;2256;48.740;9.106;2023-12-04T03:13:14;-4.90;99.90
4487;DHT22;2256;48.740;9.106;2023-12-04T03:15:41;-4.90;99.90
4487;DHT22;2256;48.740;9.106;2023-12-04T03:18:08;-4.80;99.90
4487;DHT22;2256;48.740;9.106;2023-12-04T03:20:35;-4.80;99.90
4487;DHT22;2256;48.740;9.106;2023-12-04T03:23:01;-4.70;99.90
4487;DHT22;2256;48.740;9.106;2023-12-04T03:25:28;-4.70;99.90
4487;DHT22;2256;48.740;9.106;2023-12-04T03:27:55;-4.80;99.90
4487;DHT22;2256;48.740;9.106;2023-12-04T03:30:23;-4.70;99.90
4487;DHT22;2256;48.740;9.106;2023-12-04T03:32:50;-4.70;99.90
4487;DHT22;2256;48.740;9.106;2023-12-04T03:35:16;-4.60;99.90
4487;DHT22;2256;48.740;9.106;2023-12-04T03:37:43;-4.60;99.90
4487;DHT22;2256;48.740;9.106;2023-12-04T03:40:11;-4.70;99.90
4487;DHT22;2256;48.740;9.106;2023-12-04T03:42:37;-4.70;99.90
4487;DHT22;2256;48.740;9.106;2023-12-04T03:45:06;-4.70;99.90
4487;DHT22;2256;48.740;9.106;2023-12-04T03:47:34;-4.60;99.90
4487;DHT22;2256;48.740;9.106;2023-12-04T03:50:00;-4.60;99.90
4487;DHT22;2256;48.740;9.106;2023-12-04T03:52:27;-4.50;99.90
4487;DHT22;2256;48.740;9.106;2023-12-04T03:54:54;-4.50;99.90
4487;DHT22;2256;48.740;9.106;2023-12-04T03:57:21;-4.40;99.90
4487;DHT22;2256;48.740;9.106;2023-12-04T03:59:47;-4.40;99.90
4487;DHT22;2256;48.740;9.106;2023-12-04T04:02:14;-4.40;99.90
4487;DHT22;2256;48.740;9.106;2023-12-04T04:04:42;-4.30;99.90
4487;DHT22;2256;48.740;9.106;2023-12-04T04:07:09;-4.30;99.90
4487;DHT22;2256;48.740;9.106;2023-12-04T04:09:36;-4.50;99.90
4487;DHT22;2256;48.740;9.106;2023-12-04T04:12:03;-4.40;99.90
4487;DHT22;2256;48.740;9.106;2023-12-04T04:14:30;-4.40;99.90
4487;DHT22;2256;48.740;9.106;2023-12-04T04:16:56;-4.20;99.90
4487;DHT22;2256;48.740;9.106;2023-12-04T04:19:23;-4.20;99.90
4487;DHT22;2256;48.740;9.106;2023-12-04T04:21:51;-4.20;99.90
4487;DHT22;2256;48.740;9.106;2023-12-04T04:24:18;-4.10;99.90
4487;DHT22;2256;48.740;9.106;2023-12-04T04:26:44;-4.10;99.90
4487;DHT22;2256;48.740;9.106;2023-12-04T04:29:11;-4.10;99.90
4487;DHT22;2256;48.740;9.106;2023-12-04T04:31:38;-4.00;99.90
4487;DHT22;2256;48.740;9.106;2023-12-04T04:34:05;-4.10;99.90
4487;DHT22;2256;48.740;9.106;2023-12-04T04:36:32;-4.10;99.90
4487;DHT22;2256;48.740;9.106;2023-12-04T04:39:02;-4.00;99.90
4487;DHT22;2256;48.740;9.106;2023-12-04T04:41:30;-4.00;99.90
4487;DHT22;2256;48.740;9.106;2023-12-04T04:43:57;-4.00;99.90
4487;DHT22;2256;48.740;9.106;2023-12-04T04:46:23;-4.00;99.90
4487;DHT22;2256;48.740;9.106;2023-12-04T04:48:52;-4.10;99.90
4487;DHT22;2256;48.740;9.106;2023-12-04T04:51:18;-3.90;99.90
4487;DHT22;2256;48.740;9.106;2023-12-04T04:53:45;-3.80;99.90
4487;DHT22;2256;48.740;9.106;2023-12-04T04:56:13;-3.80;99.90
4487;DHT22;2256;48.740;9.106;2023-12-04T04:58:40;-3.80;99.90
4487;DHT22;2256;48.740;9.106;2023-12-04T05:01:08;-3.80;99.90
4487;DHT22;2256;48.740;9.106;2023-12-04T05:03:34;-3.80;99.90
4487;DHT22;2256;48.740;9.106;2023-12-04T05:06:01;-3.80;99.90
4487;DHT22;2256;48.740;9.106;2023-12-04T05:08:28;-3.70;99.90
4487;DHT22;2256;48.740;9.106;2023-12-04T05:10:55;-3.60;99.90
4487;DHT22;2256;48.740;9.106;2023-12-04T05:13:23;-3.50;99.90
4487;DHT22;2256;48.740;9.106;2023-12-04T05:15:50;-3.50;99.90
4487;DHT22;2256;48.740;9.106;2023-12-04T05:18:16;-3.60;99.90
4487;DHT22;2256;48.740;9.106;2023-12-04T05:20:43;-3.60;99.90
4487;DHT22;2256;48.740;9.106;2023-12-04T05:23:10;-3.50;99.90
4487;DHT22;2256;48.740;9.106;2023-12-04T05:25:36;-3.50;99.90
4487;DHT22;2256;48.740;9.106;2023-12-04T05:28:03;-3.70;99.90
4487;DHT22;2256;48.740;9.106;2023-12-04T05:30:32;-3.60;99.90
4487;DHT22;2256;48.740;9.106;2023-12-04T05:32:58;-3.70;99.90
4487;DHT22;2256;48.740;9.106;2023-12-04T05:35:25;-3.70;99.90
4487;DHT22;2256;48.740;9.106;2023-12-04T05:37:52;-3.80;99.90
4487;DHT22;2256;48.740;9.106;2023-12-04T05:40:19;-3.70;99.90
4487;DHT22;2256;48.740;9.106;2023-12-04T05:42:45;-3.70;99.90
4487;DHT22;2256;48.740;9.106;2023-12-04T05:45:12;-3.70;99.90
4487;DHT22;2256;48.740;9.106;2023-12-04T05:47:40;-3.60;99.90
4487;DHT22;2256;48.740;9.106;2023-12-04T05:50:08;-3.70;99.90
4487;DHT22;2256;48.740;9.106;2023-12-04T05:52:35;-3.80;99.90
4487;DHT22;2256;48.740;9.106;2023-12-04T05:55:02;-3.90;99.90
4487;DHT22;2256;48.740;9.106;2023-12-04T05:57:29;-3.90;99.90
4487;DHT22;2256;48.740;9.106;2023-12-04T05:59:55;-3.70;99.90
4487;DHT22;2256;48.740;9.106;2023-12-04T06:02:22;-3.80;99.90
4487;DHT22;2256;48.740;9.106;2023-12-04T06:04:50;-3.80;99.90
4487;DHT22;2256;48.740;9.106;2023-12-04T06:07:17;-3.80;99.90
4487;DHT22;2256;48.740;9.106;2023-12-04T06:09:44;-3.80;99.90
4487;DHT22;2256;48.740;9.106;2023-12-04T06:12:10;-3.80;99.90
4487;DHT22;2256;48.740;9.106;2023-12-04T06:14:37;-3.70;99.90
4487;DHT22;2256;48.740;9.106;2023-12-04T06:17:04;-3.60;99.90
4487;DHT22;2256;48.740;9.106;2023-12-04T06:19:32;-3.40;99.90
4487;DHT22;2256;48.740;9.106;2023-12-04T06:22:00;-3.30;99.90
4487;DHT22;2256;48.740;9.106;2023-12-04T06:24:27;-3.30;99.90
4487;DHT22;2256;48.740;9.106;2023-12-04T06:26:54;-3.30;99.90
4487;DHT22;2256;48.740;9.106;2023-12-04T06:29:23;-3.30;99.90
4487;DHT22;2256;48.740;9.106;2023-12-04T06:31:50;-3.40;99.90
4487;DHT22;2256;48.740;9.106;2023-12-04T06:34:18;-3.30;99.90
4487;DHT22;2256;48.740;9.106;2023-12-04T06:36:45;-3.40;99.90
4487;DHT22;2256;48.740;9.106;2023-12-04T06:39:15;-3.40;99.90
4487;DHT22;2256;48.740;9.106;2023-12-04T06:41:43;-3.50;99.90
4487;DHT22;2256;48.740;9.106;2023-12-04T06:44:10;-3.70;99.90
4487;DHT22;2256;48.740;9.106;2023-12-04T06:46:38;-3.70;99.90
4487;DHT22;2256;48.740;9.106;2023-12-04T06:49:05;-3.70;99.90
4487;DHT22;2256;48.740;9.106;2023-12-04T06:51:32;-3.70;99.90
4487;DHT22;2256;48.740;9.106;2023-12-04T06:53:59;-3.60;99.90
4487;DHT22;2256;48.740;9.106;2023-12-04T06:56:27;-3.50;99.90
4487;DHT22;2256;48.740;9.106;2023-12-04T06:58:54;-3.60;99.90
4487;DHT22;2256;48.740;9.106;2023-12-04T07:01:21;-3.50;99.90
4487;DHT22;2256;48.740;9.106;2023-12-04T07:03:48;-3.40;99.90
4487;DHT22;2256;48.740;9.106;2023-12-04T07:06:15;-3.50;99.90
4487;DHT22;2256;48.740;9.106;2023-12-04T07:08:42;-3.50;99.90
4487;DHT22;2256;48.740;9.106;2023-12-04T07:11:09;-3.40;99.90
4487;DHT22;2256;48.740;9.106;2023-12-04T07:13:37;-3.30;99.90
4487;DHT22;2256;48.740;9.106;2023-12-04T07:16:04;-3.30;99.90
4487;DHT22;2256;48.740;9.106;2023-12-04T07:18:31;-3.40;99.90
4487;DHT22;2256;48.740;9.106;2023-12-04T07:20:58;-3.40;99.90
4487;DHT22;2256;48.740;9.106;2023-12-04T07:23:25;-3.30;99.90
4487;DHT22;2256;48.740;9.106;2023-12-04T07:25:51;-3.40;99.90
4487;DHT22;2256;48.740;9.106;2023-12-04T07:28:18;-3.40;99.90
4487;DHT22;2256;48.740;9.106;2023-12-04T07:30:47;-3.30;99.90
4487;DHT22;2256;48.740;9.106;2023-12-04T07:33:14;-3.30;99.90
4487;DHT22;2256;48.740;9.106;2023-12-04T07:35:40;-3.30;99.90
4487;DHT22;2256;48.740;9.106;2023-12-04T07:38:07;-3.30;99.90
4487;DHT22;2256;48.740;9.106;2023-12-04T07:40:34;-3.40;99.90
4487;DHT22;2256;48.740;9.106;2023-12-04T07:43:00;-3.50;99.90
4487;DHT22;2256;48.740;9.106;2023-12-04T07:45:27;-3.40;99.90
4487;DHT22;2256;48.740;9.106;2023-12-04T07:47:56;-3.30;99.90
4487;DHT22;2256;48.740;9.106;2023-12-04T07:50:22;-3.30;99.90
4487;DHT22;2256;48.740;9.106;2023-12-04T07:52:51;-3.10;99.90
4487;DHT22;2256;48.740;9.106;2023-12-04T07:55:17;-3.00;99.90
4487;DHT22;2256;48.740;9.106;2023-12-04T07:57:44;-3.00;99.90
4487;DHT22;2256;48.740;9.106;2023-12-04T08:00:12;-3.10;99.90
4487;DHT22;2256;48.740;9.106;2023-12-04T08:02:43;-3.00;99.90
4487;DHT22;2256;48.740;9.106;2023-12-04T08:05:12;-2.90;99.90
4487;DHT22;2256;48.740;9.106;2023-12-04T08:07:38;-2.70;99.90
4487;DHT22;2256;48.740;9.106;2023-12-04T08:10:06;-2.70;99.90
4487;DHT22;2256;48.740;9.106;2023-12-04T08:12:34;-2.60;99.90
4487;DHT22;2256;48.740;9.106;2023-12-04T08:15:02;-2.70;99.90
4487;DHT22;2256;48.740;9.106;2023-12-04T08:17:29;-2.70;99.90
4487;DHT22;2256;48.740;9.106;2023-12-04T08:19:56;-2.60;99.90
4487;DHT22;2256;48.740;9.106;2023-12-04T08:22:24;-2.60;99.90
4487;DHT22;2256;48.740;9.106;2023-12-04T08:24:51;-2.70;99.90
4487;DHT22;2256;48.740;9.106;2023-12-04T08:27:18;-2.60;99.90
4487;DHT22;2256;48.740;9.106;2023-12-04T08:29:45;-2.40;99.90
4487;DHT22;2256;48.740;9.106;2023-12-04T08:32:12;-2.50;99.90
4487;DHT22;2256;48.740;9.106;2023-12-04T08:34:39;-2.40;99.90
4487;DHT22;2256;48.740;9.106;2023-12-04T08:37:06;-2.30;99.90
4487;DHT22;2256;48.740;9.106;2023-12-04T08:39:34;-2.20;99.90
4487;DHT22;2256;48.740;9.106;2023-12-04T08:42:01;-2.10;99.90
4487;DHT22;2256;48.740;9.106;2023-12-04T08:44:29;-2.00;99.90
4487;DHT22;2256;48.740;9.106;2023-12-04T08:46:55;-1.90;99.90
4487;DHT22;2256;48.740;9.106;2023-12-04T08:49:23;-1.80;99.90
4487;DHT22;2256;48.740;9.106;2023-12-04T08:51:51;-1.70;99.90
4487;DHT22;2256;48.740;9.106;2023-12-04T08:54:18;-1.60;99.90
4487;DHT22;2256;48.740;9.106;2023-12-04T08:56:46;-1.60;99.90
4487;DHT22;2256;48.740;9.106;2023-12-04T08:59:13;-1.50;99.90
4487;DHT22;2256;48.740;9.106;2023-12-04T09:01:40;-1.50;99.90
4487;DHT22;2256;48.740;9.106;2023-12-04T09:04:08;-1.40;99.90
4487;DHT22;2256;48.740;9.106;2023-12-04T09:06:34;-1.40;99.90
4487;DHT22;2256;48.740;9.106;2023-12-04T09:09:01;-1.40;99.90
4487;DHT22;2256;48.740;9.106;2023-12-04T09:11:28;-1.40;99.90
4487;DHT22;2256;48.740;9.106;2023-12-04T09:13:56;-1.30;99.90
4487;DHT22;2256;48.740;9.106;2023-12-04T09:16:23;-1.30;99.90
4487;DHT22;2256;48.740;9.106;2023-12-04T09:18:50;-1.30;99.90
4487;DHT22;2256;48.740;9.106;2023-12-04T09:21:19;-1.30;99.90
4487;DHT22;2256;48.740;9.106;2023-12-04T09:23:45;-1.20;99.90
4487;DHT22;2256;48.740;9.106;2023-12-04T09:26:15;-1.10;99.90
4487;DHT22;2256;48.740;9.106;2023-12-04T09:28:42;-1.00;99.90
4487;DHT22;2256;48.740;9.106;2023-12-04T09:31:10;-1.00;99.90
4487;DHT22;2256;48.740;9.106;2023-12-04T09:33:37;-1.00;99.90
4487;DHT22;2256;48.740;9.106;2023-12-04T09:36:04;-0.90;99.90
4487;DHT22;2256;48.740;9.106;2023-12-04T09:38:31;-0.90;99.90
4487;DHT22;2256;48.740;9.106;2023-12-04T09:40:59;-0.60;99.90
4487;DHT22;2256;48.740;9.106;2023-12-04T09:43:27;-0.60;99.90
4487;DHT22;2256;48.740;9.106;2023-12-04T09:45:54;-0.50;99.90
4487;DHT22;2256;48.740;9.106;2023-12-04T09:48:24;-0.60;99.90
4487;DHT22;2256;48.740;9.106;2023-12-04T09:50:52;-0.50;99.90
4487;DHT22;2256;48.740;9.106;2023-12-04T09:53:19;-0.50;99.90
4487;DHT22;2256;48.740;9.106;2023-12-04T09:55:49;-0.40;99.90
4487;DHT22;2256;48.740;9.106;2023-12-04T09:58:19;-0.30;99.90
4487;DHT22;2256;48.740;9.106;2023-12-04T10:00:46;-0.40;99.90
4487;DHT22;2256;48.740;9.106;2023-12-04T10:03:14;-0.50;99.90
4487;DHT22;2256;48.740;9.106;2023-12-04T10:05:44;-0.40;99.90
4487;DHT22;2256;48.740;9.106;2023-12-04T10:08:11;-0.40;99.90
4487;DHT22;2256;48.740;9.106;2023-12-04T10:10:38;-0.40;99.90
4487;DHT22;2256;48.740;9.106;2023-12-04T10:13:05;-0.20;99.90
4487;DHT22;2256;48.740;9.106;2023-12-04T10:15:32;0.00;99.90
4487;DHT22;2256;48.740;9.106;2023-12-04T10:18:00;0.20;99.90
4487;DHT22;2256;48.740;9.106;2023-12-04T10:20:26;0.20;99.90
4487;DHT22;2256;48.740;9.106;2023-12-04T10:22:55;0.20;99.90
4487;DHT22;2256;48.740;9.106;2023-12-04T10:25:24;0.30;99.90
4487;DHT22;2256;48.740;9.106;2023-12-04T10:27:51;0.30;99.90
4487;DHT22;2256;48.740;9.106;2023-12-04T10:30:25;0.40;99.90
4487;DHT22;2256;48.740;9.106;2023-12-04T10:32:56;0.40;99.90
4487;DHT22;2256;48.740;9.106;2023-12-04T10:35:26;0.50;99.90
4487;DHT22;2256;48.740;9.106;2023-12-04T10:37:56;0.40;99.90
4487;DHT22;2256;48.740;9.106;2023-12-04T10:40:23;0.60;99.90
4487;DHT22;2256;48.740;9.106;2023-12-04T10:42:50;0.70;99.90
4487;DHT22;2256;48.740;9.106;2023-12-04T10:45:17;0.70;99.90
4487;DHT22;2256;48.740;9.106;2023-12-04T10:47:48;0.90;99.90
4487;DHT22;2256;48.740;9.106;2023-12-04T10:50:16;1.00;99.90
4487;DHT22;2256;48.740;9.106;2023-12-04T10:52:44;1.10;99.90
4487;DHT22;2256;48.740;9.106;2023-12-04T10:55:13;1.20;99.90
4487;DHT22;2256;48.740;9.106;2023-12-04T10:57:40;1.30;99.90
4487;DHT22;2256;48.740;9.106;2023-12-04T11:00:10;1.40;99.90
4487;DHT22;2256;48.740;9.106;2023-12-04T11:02:43;1.40;99.90
4487;DHT22;2256;48.740;9.106;2023-12-04T11:05:14;1.60;99.90
4487;DHT22;2256;48.740;9.106;2023-12-04T11:07:48;1.60;99.90
4487;DHT22;2256;48.740;9.106;2023-12-04T11:10:22;2.00;99.90
4487;DHT22;2256;48.740;9.106;2023-12-04T11:12:54;2.10;99.90
4487;DHT22;2256;48.740;9.106;2023-12-04T11:15:23;2.10;99.90
4487;DHT22;2256;48.740;9.106;2023-12-04T11:17:56;2.20;99.90
4487;DHT22;2256;48.740;9.106;2023-12-04T11:20:27;2.30;99.90
4487;DHT22;2256;48.740;9.106;2023-12-04T11:22:56;2.30;99.90
4487;DHT22;2256;48.740;9.106;2023-12-04T11:25:25;2.20;99.90
4487;DHT22;2256;48.740;9.106;2023-12-04T11:27:52;2.20;99.90
4487;DHT22;2256;48.740;9.106;2023-12-04T11:30:20;2.20;99.90
4487;DHT22;2256;48.740;9.106;2023-12-04T11:32:48;2.20;99.90
4487;DHT22;2256;48.740;9.106;2023-12-04T11:35:18;2.20;99.90
4487;DHT22;2256;48.740;9.106;2023-12-04T11:37:45;2.30;99.90
4487;DHT22;2256;48.740;9.106;2023-12-04T11:40:13;2.20;99.90
4487;DHT22;2256;48.740;9.106;2023-12-04T11:42:43;1.90;99.90
4487;DHT22;2256;48.740;9.106;2023-12-04T11:45:10;2.10;99.90
4487;DHT22;2256;48.740;9.106;2023-12-04T11:47:55;2.30;99.90
4487;DHT22;2256;48.740;9.106;2023-12-04T11:50:24;2.40;99.90
4487;DHT22;2256;48.740;9.106;2023-12-04T11:52:52;2.20;99.90
4487;DHT22;2256;48.740;9.106;2023-12-04T11:55:21;2.00;99.90
4487;DHT22;2256;48.740;9.106;2023-12-04T11:57:51;2.10;99.90
4487;DHT22;2256;48.740;9.106;2023-12-04T12:00:22;1.90;99.90
4487;DHT22;2256;48.740;9.106;2023-12-04T12:03:04;2.10;99.90
4487;DHT22;2256;48.740;9.106;2023-12-04T12:05:32;1.80;99.90
4487;DHT22;2256;48.740;9.106;2023-12-04T12:08:03;1.90;99.90
4487;DHT22;2256;48.740;9.106;2023-12-04T12:10:30;2.10;99.90
4487;DHT22;2256;48.740;9.106;2023-12-04T12:12:58;2.20;99.90
4487;DHT22;2256;48.740;9.106;2023-12-04T12:15:26;2.00;99.90
4487;DHT22;2256;48.740;9.106;2023-12-04T12:17:53;2.10;99.90
4487;DHT22;2256;48.740;9.106;2023-12-04T12:20:20;2.30;99.90
4487;DHT22;2256;48.740;9.106;2023-12-04T12:22:48;2.30;99.90
4487;DHT22;2256;48.740;9.106;2023-12-04T12:25:15;2.30;99.90
4487;DHT22;2256;48.740;9.106;2023-12-04T12:27:43;2.50;99.90
4487;DHT22;2256;48.740;9.106;2023-12-04T12:30:12;2.40;99.90
4487;DHT22;2256;48.740;9.106;2023-12-04T12:32:38;2.30;99.90
4487;DHT22;2256;48.740;9.106;2023-12-04T12:35:06;1.80;99.90
4487;DHT22;2256;48.740;9.106;2023-12-04T12:37:34;1.70;99.90
4487;DHT22;2256;48.740;9.106;2023-12-04T12:40:01;1.60;99.90
4487;DHT22;2256;48.740;9.106;2023-12-04T12:42:30;1.40;99.90
4487;DHT22;2256;48.740;9.106;2023-12-04T12:45:01;1.60;99.90
4487;DHT22;2256;48.740;9.106;2023-12-04T12:47:30;1.60;99.90
4487;DHT22;2256;48.740;9.106;2023-12-04T12:49:57;1.60;99.90
4487;DHT22;2256;48.740;9.106;2023-12-04T12:52:26;1.50;99.90
4487;DHT22;2256;48.740;9.106;2023-12-04T12:54:52;1.50;99.90
4487;DHT22;2256;48.740;9.106;2023-12-04T12:57:19;1.60;99.90
4487;DHT22;2256;48.740;9.106;2023-12-04T12:59:46;1.50;99.90
4487;DHT22;2256;48.740;9.106;2023-12-04T13:02:14;1.50;99.90
4487;DHT22;2256;48.740;9.106;2023-12-04T13:04:44;1.60;99.90
4487;DHT22;2256;48.740;9.106;2023-12-04T13:07:11;1.50;99.90
4487;DHT22;2256;48.740;9.106;2023-12-04T13:09:38;1.60;99.90
4487;DHT22;2256;48.740;9.106;2023-12-04T13:12:06;1.50;99.90
4487;DHT22;2256;48.740;9.106;2023-12-04T13:14:34;1.60;99.90
4487;DHT22;2256;48.740;9.106;2023-12-04T13:17:01;1.60;99.90
4487;DHT22;2256;48.740;9.106;2023-12-04T13:19:28;1.50;99.90
4487;DHT22;2256;48.740;9.106;2023-12-04T13:21:58;1.40;99.90
4487;DHT22;2256;48.740;9.106;2023-12-04T13:24:25;1.30;99.90
4487;DHT22;2256;48.740;9.106;2023-12-04T13:26:53;1.40;99.90
4487;DHT22;2256;48.740;9.106;2023-12-04T13:29:20;1.50;99.90
4487;DHT22;2256;48.740;9.106;2023-12-04T13:31:47;1.50;99.90
4487;DHT22;2256;48.740;9.106;2023-12-04T13:34:15;1.60;99.90
4487;DHT22;2256;48.740;9.106;2023-12-04T13:36:42;1.70;99.90
4487;DHT22;2256;48.740;9.106;2023-12-04T13:39:10;1.70;99.90
4487;DHT22;2256;48.740;9.106;2023-12-04T13:41:43;1.40;99.90
4487;DHT22;2256;48.740;9.106;2023-12-04T13:44:30;1.10;99.90
4487;DHT22;2256;48.740;9.106;2023-12-04T13:46:58;1.20;99.90
4487;DHT22;2256;48.740;9.106;2023-12-04T13:49:25;1.10;99.90
4487;DHT22;2256;48.740;9.106;2023-12-04T13:51:52;1.10;99.90
4487;DHT22;2256;48.740;9.106;2023-12-04T13:54:20;1.20;99.90
4487;DHT22;2256;48.740;9.106;2023-12-04T13:56:53;1.30;99.90
4487;DHT22;2256;48.740;9.106;2023-12-04T13:59:22;1.20;99.90
4487;DHT22;2256;48.740;9.106;2023-12-04T14:01:50;1.10;99.90
4487;DHT22;2256;48.740;9.106;2023-12-04T14:04:20;0.80;99.90
4487;DHT22;2256;48.740;9.106;2023-12-04T14:06:49;0.90;99.90
4487;DHT22;2256;48.740;9.106;2023-12-04T14:09:16;0.90;99.90
4487;DHT22;2256;48.740;9.106;2023-12-04T14:11:44;0.80;99.90
4487;DHT22;2256;48.740;9.106;2023-12-04T14:14:11;0.70;99.90
4487;DHT22;2256;48.740;9.106;2023-12-04T14:16:39;0.60;99.90
4487;DHT22;2256;48.740;9.106;2023-12-04T14:19:06;0.50;99.90
4487;DHT22;2256;48.740;9.106;2023-12-04T14:21:33;0.40;99.90
4487;DHT22;2256;48.740;9.106;2023-12-04T14:24:00;0.50;99.90
4487;DHT22;2256;48.740;9.106;2023-12-04T14:26:26;0.50;99.90
4487;DHT22;2256;48.740;9.106;2023-12-04T14:28:55;0.60;99.90
4487;DHT22;2256;48.740;9.106;2023-12-04T14:31:26;0.40;99.90
4487;DHT22;2256;48.740;9.106;2023-12-04T14:33:53;0.40;99.90
4487;DHT22;2256;48.740;9.106;2023-12-04T14:36:20;0.50;99.90
4487;DHT22;2256;48.740;9.106;2023-12-04T14:38:46;0.50;99.90
4487;DHT22;2256;48.740;9.106;2023-12-04T14:41:13;0.40;99.90
4487;DHT22;2256;48.740;9.106;2023-12-04T14:43:40;0.50;99.90
4487;DHT22;2256;48.740;9.106;2023-12-04T14:46:09;0.30;99.90
4487;DHT22;2256;48.740;9.106;2023-12-04T14:48:37;0.20;99.90
4487;DHT22;2256;48.740;9.106;2023-12-04T14:51:07;0.20;99.90
4487;DHT22;2256;48.740;9.106;2023-12-04T14:53:34;0.30;99.90
4487;DHT22;2256;48.740;9.106;2023-12-04T14:56:10;0.40;99.90
4487;DHT22;2256;48.740;9.106;2023-12-04T14:58:51;0.40;99.90
4487;DHT22;2256;48.740;9.106;2023-12-04T15:02:03;0.40;99.90
4487;DHT22;2256;48.740;9.106;2023-12-04T15:05:14;0.40;99.90
4487;DHT22;2256;48.740;9.106;2023-12-04T15:08:01;0.40;99.90
4487;DHT22;2256;48.740;9.106;2023-12-04T15:10:57;0.50;99.90
4487;DHT22;2256;48.740;9.106;2023-12-04T15:13:45;0.70;99.90
4487;DHT22;2256;48.740;9.106;2023-12-04T15:16:21;0.70;99.90
4487;DHT22;2256;48.740;9.106;2023-12-04T15:18:58;0.60;99.90
4487;DHT22;2256;48.740;9.106;2023-12-04T15:21:54;0.50;99.90
4487;DHT22;2256;48.740;9.106;2023-12-04T15:24:20;0.50;99.90
4487;DHT22;2256;48.740;9.106;2023-12-04T15:26:47;0.60;99.90
4487;DHT22;2256;48.740;9.106;2023-12-04T15:29:13;0.70;99.90
4487;DHT22;2256;48.740;9.106;2023-12-04T15:31:43;0.60;99.90
4487;DHT22;2256;48.740;9.106;2023-12-04T15:34:11;0.50;99.90
4487;DHT22;2256;48.740;9.106;2023-12-04T15:36:37;0.60;99.90
4487;DHT22;2256;48.740;9.106;2023-12-04T15:39:03;0.60;99.90
4487;DHT22;2256;48.740;9.106;2023-12-04T15:41:30;0.70;99.90
4487;DHT22;2256;48.740;9.106;2023-12-04T15:43:57;0.70;99.90
4487;DHT22;2256;48.740;9.106;2023-12-04T15:46:24;0.70;99.90
4487;DHT22;2256;48.740;9.106;2023-12-04T15:48:52;0.70;99.90
4487;DHT22;2256;48.740;9.106;2023-12-04T15:51:20;0.80;99.90
4487;DHT22;2256;48.740;9.106;2023-12-04T15:53:46;0.80;99.90
4487;DHT22;2256;48.740;9.106;2023-12-04T15:56:13;0.80;99.90
4487;DHT22;2256;48.740;9.106;2023-12-04T15:58:39;0.60;99.90
4487;DHT22;2256;48.740;9.106;2023-12-04T16:01:06;0.70;99.90
4487;DHT22;2256;48.740;9.106;2023-12-04T16:03:32;0.70;99.90
4487;DHT22;2256;48.740;9.106;2023-12-04T16:05:59;0.70;99.90
4487;DHT22;2256;48.740;9.106;2023-12-04T16:08:27;0.50;99.90
4487;DHT22;2256;48.740;9.106;2023-12-04T16:10:54;0.60;99.90
4487;DHT22;2256;48.740;9.106;2023-12-04T16:13:20;0.70;99.90